Time;durP1;ratioP1;P1;durP2;ratioP2;P2;SDS_P1;SDS_P2;PMS_P1;PMS_P2;Temp;Humidity;BMP_temperature;BMP_pressure;BME280_temperature;BME280_humidity;BME280_pressure;Samples;Min_cycle;Max_cycle;Signal;HPM_P1;HPM_P2
2021/09/28 00:01:18;;;;;;;9.00;1.95;;;11.40;99.90;;;;;;5029256;28;20493;-78
2021/09/28 00:03:44;;;;;;;4.88;1.50;;;11.40;99.90;;;;;;4993682;28;20053;-78
2021/09/28 00:06:11;;;;;;;7.50;1.58;;;11.40;99.90;;;;;;5014234;28;20049;-78
2021/09/28 00:08:37;;;;;;;10.20;1.77;;;11.30;99.90;;;;;;4993149;28;20401;-78
2021/09/28 00:11:04;;;;;;;5.88;1.63;;;11.40;99.90;;;;;;5012376;28;20500;-78
2021/09/28 00:13:30;;;;;;;5.45;1.27;;;11.40;99.90;;;;;;5015139;28;20136;-78
2021/09/28 00:15:57;;;;;;;4.53;1.20;;;11.30;99.90;;;;;;5014703;28;20057;-78
2021/09/28 00:18:24;;;;;;;4.65;1.42;;;11.30;99.90;;;;;;4995038;28;20045;-78
2021/09/28 00:20:50;;;;;;;4.75;1.52;;;11.30;99.90;;;;;;5027968;28;20056;-78
2021/09/28 00:23:17;;;;;;;8.32;1.83;;;11.20;99.90;;;;;;5007429;28;20053;-78
2021/09/28 00:25:45;;;;;;;5.43;1.25;;;11.20;99.90;;;;;;5001220;28;20049;-78
2021/09/28 00:28:11;;;;;;;10.75;1.83;;;11.20;99.90;;;;;;5024078;28;20042;-78
2021/09/28 00:30:38;;;;;;;5.07;1.50;;;11.30;99.90;;;;;;5011671;28;20420;-78
2021/09/28 00:33:04;;;;;;;6.53;1.90;;;11.20;99.90;;;;;;5000199;28;20654;-78
2021/09/28 00:35:31;;;;;;;6.20;1.60;;;11.20;99.90;;;;;;5019926;28;20034;-78
2021/09/28 00:37:57;;;;;;;4.55;1.60;;;11.20;99.90;;;;;;5025563;28;20037;-78
2021/09/28 00:40:24;;;;;;;6.28;1.77;;;11.20;99.90;;;;;;5010124;28;20414;-78
2021/09/28 00:42:50;;;;;;;10.18;2.33;;;11.20;99.90;;;;;;5009272;28;20049;-78
2021/09/28 00:45:17;;;;;;;6.75;2.00;;;11.20;99.90;;;;;;5010275;28;20504;-78
2021/09/28 00:47:44;;;;;;;7.07;1.80;;;11.20;99.90;;;;;;5008764;28;20060;-78
2021/09/28 00:50:11;;;;;;;7.28;2.22;;;11.20;99.90;;;;;;5018327;28;20048;-78
2021/09/28 00:52:37;;;;;;;10.02;2.70;;;11.10;99.90;;;;;;5025841;28;20063;-78
2021/09/28 00:55:04;;;;;;;8.15;2.25;;;11.10;99.90;;;;;;5027094;28;20049;-78
2021/09/28 00:57:32;;;;;;;3.70;1.45;;;11.10;99.90;;;;;;5017738;28;20485;-78
2021/09/28 01:00:00;;;;;;;8.63;2.20;;;11.10;99.90;;;;;;5010949;28;20053;-78
2021/09/28 01:02:26;;;;;;;8.13;1.55;;;11.10;99.90;;;;;;5011295;28;20045;-78
2021/09/28 01:04:53;;;;;;;6.65;1.70;;;11.10;99.90;;;;;;5011746;28;20526;-77
2021/09/28 01:07:19;;;;;;;9.77;2.45;;;11.10;99.90;;;;;;5030326;28;20061;-78
2021/09/28 01:09:45;;;;;;;7.13;1.65;;;11.10;99.90;;;;;;5029691;28;20041;-78
2021/09/28 01:12:12;;;;;;;4.60;1.83;;;11.10;99.90;;;;;;4998534;28;20045;-78
2021/09/28 01:14:42;;;;;;;8.63;1.85;;;11.10;99.90;;;;;;5027388;28;20041;-78
2021/09/28 01:17:14;;;;;;;7.88;1.33;;;11.10;99.90;;;;;;5012248;28;20042;-78
2021/09/28 01:19:41;;;;;;;6.65;1.48;;;11.10;99.90;;;;;;5010467;28;20515;-78
2021/09/28 01:22:08;;;;;;;5.05;1.83;;;11.10;99.90;;;;;;5013773;28;20040;-78
2021/09/28 01:24:36;;;;;;;5.60;1.83;;;11.00;99.90;;;;;;5014692;28;20042;-78
2021/09/28 01:27:03;;;;;;;3.88;1.60;;;11.00;99.90;;;;;;5023076;28;20048;-78
2021/09/28 01:29:30;;;;;;;7.38;1.50;;;11.00;99.90;;;;;;5018896;28;20037;-78
2021/09/28 01:31:57;;;;;;;4.63;1.23;;;11.00;99.90;;;;;;5035667;28;20492;-78
2021/09/28 01:34:23;;;;;;;8.77;1.83;;;11.00;99.90;;;;;;5050574;28;20036;-78
2021/09/28 01:36:50;;;;;;;4.60;1.30;;;10.90;99.90;;;;;;5019283;28;20053;-78
2021/09/28 01:39:17;;;;;;;5.95;1.50;;;10.90;99.90;;;;;;5027560;28;20400;-78
2021/09/28 01:41:44;;;;;;;4.82;1.30;;;11.00;99.90;;;;;;5013519;28;20049;-78
2021/09/28 01:44:16;;;;;;;4.07;1.17;;;11.00;99.90;;;;;;5030309;28;20866;-78
2021/09/28 01:46:44;;;;;;;4.50;1.27;;;10.90;99.90;;;;;;5014757;28;20045;-78
2021/09/28 01:49:13;;;;;;;4.22;1.20;;;10.90;99.90;;;;;;5010737;28;20537;-78
2021/09/28 01:51:40;;;;;;;10.27;1.88;;;10.90;99.90;;;;;;5049570;28;20049;-78
2021/09/28 01:54:08;;;;;;;9.63;1.50;;;10.90;99.90;;;;;;5031202;28;20037;-78
2021/09/28 01:56:35;;;;;;;4.88;1.42;;;10.90;99.90;;;;;;5012576;28;20048;-78
2021/09/28 01:59:03;;;;;;;7.15;1.35;;;10.80;99.90;;;;;;5013820;28;20056;-78
2021/09/28 02:01:30;;;;;;;5.97;1.05;;;10.80;99.90;;;;;;5034280;28;20049;-78
2021/09/28 02:03:57;;;;;;;7.28;1.23;;;10.80;99.90;;;;;;5013530;28;20049;-78
2021/09/28 02:06:23;;;;;;;7.80;1.15;;;10.80;99.90;;;;;;5001065;28;20041;-78
2021/09/28 02:08:51;;;;;;;5.00;1.15;;;10.80;99.90;;;;;;5001096;28;20049;-78
2021/09/28 02:11:17;;;;;;;6.57;1.13;;;10.80;99.90;;;;;;5031025;28;20038;-78
2021/09/28 02:13:44;;;;;;;5.97;1.17;;;10.80;99.90;;;;;;5021713;28;20033;-78
2021/09/28 02:16:11;;;;;;;5.72;1.17;;;10.70;99.90;;;;;;5036645;28;20068;-77
2021/09/28 02:18:38;;;;;;;6.70;1.38;;;10.70;99.90;;;;;;5035279;28;20029;-78
2021/09/28 02:21:07;;;;;;;8.38;1.55;;;10.80;99.90;;;;;;5024323;28;20048;-78
2021/09/28 02:23:33;;;;;;;11.00;1.50;;;10.70;99.90;;;;;;5030007;28;20045;-78
2021/09/28 02:25:59;;;;;;;8.15;1.20;;;10.70;99.90;;;;;;5030998;28;20037;-79
2021/09/28 02:28:26;;;;;;;7.75;1.05;;;10.70;99.90;;;;;;5041368;28;20052;-79
2021/09/28 02:30:52;;;;;;;7.18;1.42;;;10.70;99.90;;;;;;5043615;28;20033;-79
2021/09/28 02:33:19;;;;;;;7.45;1.75;;;10.70;99.90;;;;;;5005405;28;20041;-79
2021/09/28 02:35:45;;;;;;;8.55;2.30;;;10.60;99.90;;;;;;5010072;28;20052;-79
2021/09/28 02:38:12;;;;;;;9.77;1.50;;;10.60;99.90;;;;;;5026610;28;20041;-79
2021/09/28 02:40:39;;;;;;;7.47;1.52;;;10.60;99.90;;;;;;5027179;28;20038;-79
2021/09/28 02:43:05;;;;;;;8.38;1.27;;;10.60;99.90;;;;;;5025192;28;20049;-79
2021/09/28 02:45:32;;;;;;;8.32;1.58;;;10.60;99.90;;;;;;5010330;28;20057;-79
2021/09/28 02:47:58;;;;;;;6.47;1.27;;;10.50;99.90;;;;;;4995003;28;20390;-79
2021/09/28 02:50:25;;;;;;;4.53;1.33;;;10.50;99.90;;;;;;5004633;28;20042;-79
2021/09/28 02:52:51;;;;;;;8.50;1.35;;;10.50;99.90;;;;;;4999734;28;20060;-79
2021/09/28 02:55:18;;;;;;;4.05;1.25;;;10.50;99.90;;;;;;5040876;28;20033;-78
2021/09/28 02:57:44;;;;;;;3.42;0.70;;;10.50;99.90;;;;;;5006284;28;20041;-79
2021/09/28 03:00:11;;;;;;;4.68;1.13;;;10.50;99.90;;;;;;5025126;28;20264;-79
2021/09/28 03:02:37;;;;;;;7.35;1.20;;;10.40;99.90;;;;;;5007664;28;20610;-79
2021/09/28 03:05:04;;;;;;;8.77;1.67;;;10.40;99.90;;;;;;5012909;28;20072;-79
2021/09/28 03:07:31;;;;;;;7.90;1.30;;;10.40;99.90;;;;;;5026242;28;20045;-79
2021/09/28 03:09:57;;;;;;;5.75;1.30;;;10.40;99.90;;;;;;5021605;28;20049;-78
2021/09/28 03:12:23;;;;;;;7.15;1.45;;;10.40;99.90;;;;;;4999099;28;20047;-79
2021/09/28 03:14:50;;;;;;;3.63;1.13;;;10.40;99.90;;;;;;5015149;28;20076;-79
2021/09/28 03:17:16;;;;;;;9.63;1.63;;;10.40;99.90;;;;;;5034404;28;20036;-79
2021/09/28 03:19:43;;;;;;;6.63;1.33;;;10.40;99.90;;;;;;5011227;28;20404;-78
2021/09/28 03:22:09;;;;;;;9.23;1.73;;;10.40;99.90;;;;;;5012177;28;20516;-79
2021/09/28 03:24:35;;;;;;;11.02;2.17;;;10.40;99.90;;;;;;5015957;28;20048;-79
2021/09/28 03:27:02;;;;;;;7.30;1.10;;;10.40;99.90;;;;;;5016737;28;20049;-79
2021/09/28 03:29:28;;;;;;;8.18;1.73;;;10.30;99.90;;;;;;5031223;28;20393;-78
2021/09/28 03:31:55;;;;;;;12.70;1.70;;;10.30;99.90;;;;;;5016276;28;20053;-79
2021/09/28 03:34:21;;;;;;;6.38;1.27;;;10.30;99.90;;;;;;4994780;28;20064;-79
2021/09/28 03:36:47;;;;;;;8.85;1.48;;;10.30;99.90;;;;;;5015038;28;20045;-78
2021/09/28 03:39:14;;;;;;;6.35;1.23;;;10.30;99.90;;;;;;5016391;28;20045;-78
2021/09/28 03:41:40;;;;;;;7.95;1.38;;;10.30;99.90;;;;;;5026723;28;20064;-78
2021/09/28 03:44:07;;;;;;;7.47;1.27;;;10.30;99.90;;;;;;5013952;28;20072;-78
2021/09/28 03:46:33;;;;;;;8.15;1.38;;;10.30;99.90;;;;;;5035125;28;20071;-78
2021/09/28 03:48:59;;;;;;;8.95;1.13;;;10.30;99.90;;;;;;5012250;28;20050;-79
2021/09/28 03:51:26;;;;;;;9.50;1.20;;;10.30;99.90;;;;;;4998646;28;20053;-79
2021/09/28 03:53:53;;;;;;;5.43;1.00;;;10.30;99.90;;;;;;5016066;28;20076;-79
2021/09/28 03:56:20;;;;;;;6.22;1.30;;;10.30;99.90;;;;;;5015586;28;20044;-79
2021/09/28 03:58:46;;;;;;;7.32;1.00;;;10.30;99.90;;;;;;5028207;28;20049;-79
2021/09/28 04:01:13;;;;;;;6.45;1.05;;;10.30;99.90;;;;;;5028749;28;20397;-79
2021/09/28 04:03:42;;;;;;;5.50;0.60;;;10.30;99.90;;;;;;5014108;28;20060;-78
2021/09/28 04:06:09;;;;;;;8.93;1.23;;;10.30;99.90;;;;;;5019124;28;20056;-78
2021/09/28 04:08:36;;;;;;;6.72;1.10;;;10.30;99.90;;;;;;5029700;28;20056;-78
2021/09/28 04:11:02;;;;;;;7.15;0.93;;;10.20;99.90;;;;;;5002280;28;20052;-78
2021/09/28 04:13:29;;;;;;;7.25;1.25;;;10.20;99.90;;;;;;5016733;28;20048;-78
2021/09/28 04:15:55;;;;;;;5.43;1.15;;;10.20;99.90;;;;;;5013639;28;20413;-78
2021/09/28 04:18:22;;;;;;;3.67;0.70;;;10.20;99.90;;;;;;5013328;28;20405;-78
2021/09/28 04:20:49;;;;;;;8.40;1.23;;;10.20;99.90;;;;;;5032658;28;20044;-78
2021/09/28 04:23:15;;;;;;;7.30;0.82;;;10.20;99.90;;;;;;5004031;28;20053;-78
2021/09/28 04:25:42;;;;;;;4.72;1.00;;;10.20;99.90;;;;;;5030824;28;20448;-77
2021/09/28 04:28:09;;;;;;;5.20;0.90;;;10.20;99.90;;;;;;5014680;28;20060;-78
2021/09/28 04:30:36;;;;;;;7.95;1.25;;;10.10;99.90;;;;;;5014986;28;20041;-78
2021/09/28 04:33:02;;;;;;;6.20;1.17;;;10.10;99.90;;;;;;5035658;28;20485;-78
2021/09/28 04:35:29;;;;;;;11.20;1.10;;;10.10;99.90;;;;;;5017282;28;20497;-78
2021/09/28 04:37:55;;;;;;;6.60;1.17;;;10.10;99.90;;;;;;5032964;28;20045;-78
2021/09/28 04:40:22;;;;;;;6.05;0.88;;;10.10;99.90;;;;;;5032889;28;20037;-78
2021/09/28 04:42:48;;;;;;;4.18;1.05;;;10.10;99.90;;;;;;5030202;28;20041;-78
2021/09/28 04:45:15;;;;;;;4.10;0.73;;;10.10;99.90;;;;;;5011909;28;20041;-78
2021/09/28 04:47:41;;;;;;;4.75;0.88;;;10.00;99.90;;;;;;5012043;28;20045;-78
2021/09/28 04:50:08;;;;;;;5.38;1.13;;;10.00;99.90;;;;;;5031580;28;20046;-78
2021/09/28 04:52:36;;;;;;;9.60;1.35;;;10.10;99.90;;;;;;5012031;28;20046;-77
2021/09/28 04:55:06;;;;;;;4.05;0.90;;;10.00;99.90;;;;;;5015681;28;20052;-78
2021/09/28 04:57:34;;;;;;;8.02;0.95;;;10.00;99.90;;;;;;5026755;28;20033;-78
2021/09/28 05:00:01;;;;;;;8.07;1.20;;;10.00;99.90;;;;;;5013581;28;20053;-77
2021/09/28 05:02:27;;;;;;;6.72;0.82;;;10.00;99.90;;;;;;5018648;28;20057;-77
2021/09/28 05:04:54;;;;;;;4.15;0.82;;;9.90;99.90;;;;;;5035800;28;20045;-77
2021/09/28 05:07:20;;;;;;;7.93;0.80;;;9.90;99.90;;;;;;4999504;28;20072;-77
2021/09/28 05:09:46;;;;;;;5.63;0.90;;;9.90;99.90;;;;;;5031322;28;20404;-77
2021/09/28 05:12:13;;;;;;;7.75;1.23;;;9.90;99.90;;;;;;5017384;28;20050;-77
2021/09/28 05:14:39;;;;;;;4.45;1.00;;;9.90;99.90;;;;;;5035946;28;20029;-77
2021/09/28 05:17:06;;;;;;;7.97;0.90;;;9.90;99.90;;;;;;5012464;28;20041;-77
2021/09/28 05:19:32;;;;;;;5.07;0.90;;;9.80;99.90;;;;;;5014296;28;20045;-77
2021/09/28 05:21:59;;;;;;;6.55;1.08;;;9.80;99.90;;;;;;5015114;28;20416;-78
2021/09/28 05:24:25;;;;;;;3.88;0.73;;;9.80;99.90;;;;;;5015254;28;20507;-77
2021/09/28 05:26:52;;;;;;;9.52;1.35;;;9.80;99.90;;;;;;5032360;28;20033;-77
2021/09/28 05:29:18;;;;;;;6.18;1.42;;;9.80;99.90;;;;;;5019426;28;20042;-77
2021/09/28 05:31:44;;;;;;;5.05;1.05;;;9.80;99.90;;;;;;5002540;28;20052;-77
2021/09/28 05:34:11;;;;;;;4.97;1.15;;;9.70;99.90;;;;;;5017122;28;20041;-77
2021/09/28 05:36:37;;;;;;;4.55;1.02;;;9.70;99.90;;;;;;5014256;28;20087;-77
2021/09/28 05:39:04;;;;;;;6.22;0.70;;;9.70;99.90;;;;;;5027689;28;20037;-78
2021/09/28 05:41:30;;;;;;;4.57;0.85;;;9.70;99.90;;;;;;5015062;28;20049;-79
2021/09/28 05:43:56;;;;;;;5.65;0.75;;;9.70;99.90;;;;;;4999152;28;20045;-79
2021/09/28 05:46:23;;;;;;;7.20;0.98;;;9.70;99.90;;;;;;5013513;28;20045;-79
2021/09/28 05:48:49;;;;;;;6.53;0.82;;;9.70;99.90;;;;;;5014550;28;20072;-79
2021/09/28 05:51:18;;;;;;;3.72;0.98;;;9.70;99.90;;;;;;5029186;28;20045;-77
2021/09/28 05:53:45;;;;;;;6.03;0.93;;;9.80;99.90;;;;;;5016605;28;20054;-77
2021/09/28 05:56:15;;;;;;;9.10;0.80;;;9.80;99.90;;;;;;5019610;28;20404;-77
2021/09/28 05:58:42;;;;;;;3.95;0.90;;;9.80;99.90;;;;;;5028463;28;20041;-77
2021/09/28 06:01:09;;;;;;;9.30;1.08;;;9.80;99.90;;;;;;5031783;28;20405;-76
2021/09/28 06:03:35;;;;;;;7.40;0.88;;;9.90;99.90;;;;;;5029208;28;20045;-76
2021/09/28 06:06:02;;;;;;;5.60;1.00;;;9.90;99.90;;;;;;5033052;28;20227;-76
2021/09/28 06:08:29;;;;;;;4.90;1.00;;;9.90;99.90;;;;;;5027970;28;20401;-79
2021/09/28 06:10:56;;;;;;;7.57;1.17;;;10.00;99.90;;;;;;5013161;28;20045;-78
2021/09/28 06:13:22;;;;;;;6.22;1.08;;;10.00;99.90;;;;;;5030261;28;20044;-77
2021/09/28 06:15:49;;;;;;;3.85;0.90;;;10.10;99.90;;;;;;5015158;28;20056;-76
2021/09/28 06:18:15;;;;;;;4.05;1.00;;;10.20;99.90;;;;;;4995904;28;20408;-76
2021/09/28 06:20:41;;;;;;;3.85;0.93;;;10.30;99.90;;;;;;4997102;28;20044;-76
2021/09/28 06:23:08;;;;;;;5.43;0.68;;;10.30;99.90;;;;;;4997297;28;20485;-76
2021/09/28 06:25:34;;;;;;;3.85;0.70;;;10.40;99.90;;;;;;5029840;28;20056;-76
2021/09/28 06:28:01;;;;;;;5.07;0.80;;;10.40;99.90;;;;;;5011946;28;20045;-76
2021/09/28 06:30:27;;;;;;;6.30;1.20;;;10.60;99.90;;;;;;5011269;28;20046;-76
2021/09/28 06:32:53;;;;;;;5.03;1.17;;;10.60;99.90;;;;;;4994388;28;20515;-77
2021/09/28 06:35:20;;;;;;;3.83;0.95;;;10.70;99.90;;;;;;4978804;28;20049;-77
2021/09/28 06:37:46;;;;;;;5.20;0.98;;;10.80;99.90;;;;;;5007463;28;20053;-77
2021/09/28 06:40:13;;;;;;;5.13;0.98;;;10.90;99.90;;;;;;4996398;28;20349;-76
2021/09/28 06:42:40;;;;;;;7.32;1.20;;;11.00;99.90;;;;;;5028234;28;20042;-76
2021/09/28 06:45:06;;;;;;;8.10;1.30;;;11.10;99.90;;;;;;5013173;28;20403;-78
2021/09/28 06:47:34;;;;;;;6.53;0.95;;;11.10;99.90;;;;;;5025871;28;20044;-76
2021/09/28 06:50:00;;;;;;;5.72;1.17;;;11.20;99.90;;;;;;5031927;28;20045;-76
2021/09/28 06:52:26;;;;;;;8.48;1.27;;;11.40;99.90;;;;;;4997136;28;20056;-77
2021/09/28 06:54:53;;;;;;;9.70;2.85;;;11.40;99.90;;;;;;5030474;28;20497;-77
2021/09/28 06:57:19;;;;;;;14.65;3.97;;;11.50;99.90;;;;;;5028771;28;20033;-77
2021/09/28 06:59:46;;;;;;;11.63;3.83;;;11.60;99.90;;;;;;4996895;28;20904;-76
2021/09/28 07:02:12;;;;;;;7.53;2.17;;;11.70;99.90;;;;;;5008559;28;20052;-75
2021/09/28 07:04:38;;;;;;;7.47;1.90;;;11.80;99.90;;;;;;5026513;28;20048;-76
2021/09/28 07:07:05;;;;;;;6.82;1.55;;;11.90;99.90;;;;;;4992670;28;20053;-76
2021/09/28 07:09:33;;;;;;;7.45;1.60;;;11.90;99.90;;;;;;5013955;28;20071;-76
2021/09/28 07:11:59;;;;;;;3.08;1.00;;;12.00;99.90;;;;;;5032183;28;20048;-76
2021/09/28 07:14:25;;;;;;;7.90;2.03;;;12.10;99.90;;;;;;5002752;28;20052;-77
2021/09/28 07:16:52;;;;;;;10.55;2.30;;;12.20;99.90;;;;;;5032883;28;20041;-77
2021/09/28 07:19:18;;;;;;;8.02;2.55;;;12.20;99.90;;;;;;5049669;28;20037;-77
2021/09/28 07:21:45;;;;;;;10.00;3.28;;;12.40;99.90;;;;;;5035988;28;20055;-76
2021/09/28 07:24:11;;;;;;;9.95;2.42;;;12.40;99.90;;;;;;5031651;28;20040;-75
2021/09/28 07:26:39;;;;;;;9.25;2.05;;;12.50;99.90;;;;;;5033515;28;20390;-76
2021/09/28 07:29:05;;;;;;;8.30;1.90;;;12.60;99.90;;;;;;5034536;28;20048;-76
2021/09/28 07:31:32;;;;;;;9.05;2.28;;;12.70;99.90;;;;;;5021254;28;20029;-75
2021/09/28 07:33:58;;;;;;;9.43;2.67;;;12.70;99.90;;;;;;5016963;28;20069;-75
2021/09/28 07:36:24;;;;;;;6.07;2.08;;;12.70;99.90;;;;;;5011858;28;20045;-75
2021/09/28 07:38:51;;;;;;;12.80;2.00;;;12.80;99.90;;;;;;5026706;28;20029;-75
2021/09/28 07:41:17;;;;;;;13.82;2.85;;;12.90;99.90;;;;;;5029167;28;20036;-75
2021/09/28 07:43:45;;;;;;;9.55;2.15;;;13.00;99.90;;;;;;5012296;28;20541;-75
2021/09/28 07:46:11;;;;;;;14.25;2.20;;;13.00;99.90;;;;;;5032274;28;20034;-75
2021/09/28 07:48:38;;;;;;;13.90;2.05;;;13.10;99.90;;;;;;5026771;28;20060;-76
2021/09/28 07:51:04;;;;;;;6.22;1.75;;;13.10;99.90;;;;;;5029319;28;20041;-75
2021/09/28 07:53:31;;;;;;;7.18;1.63;;;13.10;99.90;;;;;;5031811;28;20033;-75
2021/09/28 07:55:57;;;;;;;6.00;1.20;;;13.20;99.90;;;;;;5029440;28;20034;-75
2021/09/28 07:58:24;;;;;;;6.38;1.92;;;13.30;99.90;;;;;;5027208;28;20048;-75
2021/09/28 08:00:50;;;;;;;6.65;1.98;;;13.30;99.90;;;;;;5013157;28;20045;-75
2021/09/28 08:03:17;;;;;;;9.85;2.08;;;13.40;99.90;;;;;;5030785;28;20100;-75
2021/09/28 08:05:43;;;;;;;11.02;2.08;;;13.50;99.90;;;;;;5011978;28;20068;-75
2021/09/28 08:08:10;;;;;;;10.85;2.67;;;13.50;99.90;;;;;;5010715;28;20416;-75
2021/09/28 08:10:36;;;;;;;10.48;2.55;;;13.60;99.90;;;;;;5030493;28;20037;-75
2021/09/28 08:13:05;;;;;;;7.22;1.58;;;13.80;99.90;;;;;;5011676;28;20056;-76
2021/09/28 08:15:35;;;;;;;8.20;2.60;;;13.90;99.90;;;;;;5011676;28;20638;-75
2021/09/28 08:18:03;;;;;;;10.10;1.88;;;14.00;99.90;;;;;;5012173;28;20410;-75
2021/09/28 08:20:30;;;;;;;10.40;1.83;;;14.10;99.90;;;;;;5027983;28;20025;-76
2021/09/28 08:22:57;;;;;;;10.43;2.70;;;14.20;99.90;;;;;;5031232;28;20046;-76
2021/09/28 08:25:36;;;;;;;11.15;1.85;;;14.20;99.90;;;;;;5028254;28;20045;-76
2021/09/28 08:30:48;;;;;;;7.95;1.67;;;14.40;99.90;;;;;;5016663;28;20495;-76
2021/09/28 08:33:14;;;;;;;9.52;1.88;;;14.40;99.90;;;;;;5026492;28;20226;-76
2021/09/28 08:35:41;;;;;;;10.93;2.17;;;14.50;99.90;;;;;;5010323;28;20400;-76
2021/09/28 08:38:07;;;;;;;7.20;1.77;;;14.60;99.90;;;;;;5031267;28;20419;-76
2021/09/28 08:40:35;;;;;;;7.93;2.30;;;14.70;99.90;;;;;;5013901;28;20060;-75
2021/09/28 08:43:02;;;;;;;9.60;1.67;;;14.80;99.90;;;;;;5032598;28;20066;-76
2021/09/28 08:45:29;;;;;;;6.38;1.50;;;14.90;99.90;;;;;;5016657;28;20053;-76
2021/09/28 08:47:55;;;;;;;9.93;1.63;;;15.00;99.90;;;;;;4995362;28;20046;-76
2021/09/28 08:50:23;;;;;;;10.77;2.22;;;15.10;99.90;;;;;;5036912;28;20041;-76
2021/09/28 08:52:51;;;;;;;8.38;1.70;;;15.20;99.90;;;;;;5019419;28;20041;-75
2021/09/28 08:55:17;;;;;;;7.35;1.55;;;15.30;99.90;;;;;;5050748;28;20487;-76
2021/09/28 08:57:44;;;;;;;9.30;2.10;;;15.30;99.90;;;;;;5012803;28;20040;-75
2021/09/28 09:00:13;;;;;;;9.88;1.92;;;15.40;99.90;;;;;;5026087;28;20033;-75
2021/09/28 09:02:42;;;;;;;9.02;1.52;;;15.50;99.90;;;;;;5011927;28;20527;-78
2021/09/28 09:05:13;;;;;;;7.28;2.10;;;15.50;99.90;;;;;;5014599;28;21160;-78
2021/09/28 09:07:44;;;;;;;7.03;1.75;;;15.50;99.90;;;;;;5029465;28;20053;-78
2021/09/28 09:10:10;;;;;;;9.20;2.20;;;15.60;99.90;;;;;;5035731;28;20037;-78
2021/09/28 09:12:41;;;;;;;7.93;1.70;;;15.70;99.90;;;;;;5030843;28;20033;-78
2021/09/28 09:15:17;;;;;;;7.57;1.70;;;15.80;99.90;;;;;;5034402;28;20516;-78
2021/09/28 09:17:45;;;;;;;8.15;1.92;;;15.90;99.90;;;;;;5010310;28;20045;-78
2021/09/28 09:20:25;;;;;;;9.32;1.75;;;15.90;99.90;;;;;;5030980;28;20028;-78
2021/09/28 09:22:52;;;;;;;5.75;1.35;;;16.00;99.90;;;;;;5035133;28;20389;-77
2021/09/28 09:25:23;;;;;;;7.85;1.00;;;16.10;99.90;;;;;;5053213;28;20041;-78
2021/09/28 09:27:50;;;;;;;8.25;1.50;;;16.10;99.90;;;;;;5029901;28;20511;-78
2021/09/28 09:30:20;;;;;;;9.32;1.42;;;16.10;99.90;;;;;;5033279;28;20049;-78
2021/09/28 09:32:55;;;;;;;5.32;1.02;;;16.20;99.90;;;;;;5048640;28;20624;-78
2021/09/28 09:35:31;;;;;;;4.45;1.20;;;16.40;99.90;;;;;;5050827;28;20032;-78
2021/09/28 09:38:08;;;;;;;7.93;1.45;;;16.50;99.90;;;;;;5024605;28;20044;-78
2021/09/28 09:40:43;;;;;;;9.15;1.75;;;16.60;99.90;;;;;;5049091;28;20032;-78
2021/09/28 09:43:12;;;;;;;7.93;1.60;;;16.80;99.90;;;;;;5030580;28;20512;-77
2021/09/28 09:45:38;;;;;;;15.10;2.33;;;16.90;99.90;;;;;;5028728;28;20048;-78
2021/09/28 09:48:24;;;;;;;10.45;2.50;;;16.90;99.90;;;;;;5011055;28;20050;-78
2021/09/28 09:50:56;;;;;;;10.00;2.60;;;17.00;99.90;;;;;;5030533;28;20410;-77
2021/09/28 09:53:23;;;;;;;11.80;1.92;;;17.10;99.90;;;;;;5013313;28;20057;-78
2021/09/28 09:55:49;;;;;;;14.73;3.45;;;17.20;99.90;;;;;;5032747;28;20028;-78
2021/09/28 09:58:15;;;;;;;11.73;3.72;;;17.30;99.90;;;;;;4998167;28;20044;-78
2021/09/28 10:00:42;;;;;;;18.42;9.27;;;17.50;99.90;;;;;;5032575;28;20045;-76
2021/09/28 10:03:11;;;;;;;10.90;2.88;;;17.50;99.90;;;;;;5025804;28;20041;-79
2021/09/28 10:05:38;;;;;;;13.60;2.17;;;17.70;99.90;;;;;;5031239;28;20032;-78
2021/09/28 10:08:08;;;;;;;8.40;1.70;;;17.80;99.90;;;;;;5030628;28;20060;-78
2021/09/28 10:10:35;;;;;;;9.90;1.17;;;18.00;99.90;;;;;;5034838;28;20036;-78
2021/09/28 10:13:03;;;;;;;6.75;1.25;;;18.10;99.90;;;;;;5019169;28;20057;-78
2021/09/28 10:15:30;;;;;;;7.90;1.23;;;18.30;99.90;;;;;;5034769;28;20036;-76
2021/09/28 10:17:57;;;;;;;13.15;5.43;;;18.50;99.90;;;;;;5013982;28;20061;-76
2021/09/28 10:20:23;;;;;;;14.77;3.65;;;18.80;99.90;;;;;;5034090;28;20042;-76
2021/09/28 10:22:52;;;;;;;13.07;2.17;;;19.00;99.90;;;;;;5034653;28;20037;-76
2021/09/28 10:25:22;;;;;;;10.50;2.50;;;19.10;99.90;;;;;;5013041;28;20637;-76
2021/09/28 10:27:56;;;;;;;9.93;1.75;;;19.50;99.90;;;;;;5026155;28;20048;-77
2021/09/28 10:30:34;;;;;;;9.38;1.33;;;19.80;99.90;;;;;;5031416;28;20044;-78
2021/09/28 10:33:03;;;;;;;5.18;1.05;;;20.10;99.90;;;;;;5016591;28;20055;-77
2021/09/28 10:35:32;;;;;;;9.15;1.33;;;20.40;99.90;;;;;;5016770;28;20037;-76
2021/09/28 10:38:06;;;;;;;11.80;4.50;;;20.80;99.90;;;;;;5029467;28;20049;-77
2021/09/28 10:40:33;;;;;;;7.88;2.22;;;21.00;99.90;;;;;;5015059;28;20378;-78
2021/09/28 10:43:02;;;;;;;9.02;1.67;;;21.30;99.90;;;;;;5035917;28;20049;-77
2021/09/28 10:45:31;;;;;;;9.05;1.60;;;21.60;99.90;;;;;;5034470;28;20051;-77
2021/09/28 10:48:18;;;;;;;8.60;1.27;;;21.70;99.90;;;;;;5010166;28;20050;-77
2021/09/28 10:50:46;;;;;;;5.53;1.20;;;21.90;99.90;;;;;;5027935;28;20041;-77
2021/09/28 10:53:18;;;;;;;8.20;2.00;;;22.30;99.90;;;;;;5018987;28;20057;-76
2021/09/28 10:56:02;;;;;;;8.30;1.25;;;22.60;99.90;;;;;;5034117;28;20025;-77
2021/09/28 10:58:48;;;;;;;5.80;0.80;;;23.00;99.90;;;;;;5026156;28;20045;-77
2021/09/28 11:01:14;;;;;;;8.13;1.25;;;23.30;99.50;;;;;;5032609;28;20033;-77
2021/09/28 11:03:43;;;;;;;6.25;0.85;;;23.50;99.10;;;;;;5010963;28;20044;-78
2021/09/28 11:06:12;;;;;;;7.65;1.17;;;23.60;98.50;;;;;;5026060;28;20108;-77
2021/09/28 11:08:38;;;;;;;5.00;0.90;;;23.40;96.30;;;;;;5029449;28;20132;-77
2021/09/28 11:11:08;;;;;;;6.90;1.25;;;23.30;96.30;;;;;;5020068;28;20053;-77
2021/09/28 11:13:40;;;;;;;5.30;0.90;;;23.10;95.80;;;;;;5034374;28;20037;-77
2021/09/28 11:16:08;;;;;;;8.23;1.00;;;23.40;95.60;;;;;;5017506;28;20500;-75
2021/09/28 11:18:38;;;;;;;8.52;4.18;;;23.70;94.40;;;;;;5028121;28;20029;-77
2021/09/28 11:21:09;;;;;;;7.90;2.83;;;23.80;94.20;;;;;;5013369;28;20045;-76
2021/09/28 11:23:36;;;;;;;7.63;1.60;;;23.80;93.60;;;;;;5027559;28;20432;-78
2021/09/28 11:26:04;;;;;;;8.10;1.38;;;23.90;93.20;;;;;;5031414;28;20045;-76
2021/09/28 11:28:30;;;;;;;5.10;1.20;;;24.30;92.60;;;;;;5027252;28;20029;-76
2021/09/28 11:31:02;;;;;;;5.05;1.58;;;24.70;91.70;;;;;;5029524;28;20052;-75
2021/09/28 11:33:36;;;;;;;8.18;1.25;;;25.10;90.70;;;;;;5026749;28;20056;-78
2021/09/28 11:36:09;;;;;;;6.05;0.93;;;25.60;91.00;;;;;;5031214;28;20487;-76
2021/09/28 11:38:45;;;;;;;7.55;1.00;;;25.80;89.90;;;;;;5032661;28;20025;-76
2021/09/28 11:41:14;;;;;;;5.50;0.90;;;25.60;87.20;;;;;;5031916;28;20044;-76
2021/09/28 11:43:42;;;;;;;4.65;0.88;;;25.70;86.30;;;;;;5029459;28;20033;-76
2021/09/28 11:46:11;;;;;;;5.50;1.00;;;25.90;85.60;;;;;;5028334;28;20041;-76
2021/09/28 11:48:48;;;;;;;7.43;1.27;;;26.10;84.10;;;;;;5019868;28;20042;-76
2021/09/28 11:51:23;;;;;;;5.97;0.70;;;26.50;82.40;;;;;;5026456;28;20041;-76
2021/09/28 11:53:55;;;;;;;7.72;0.95;;;26.70;82.00;;;;;;5044890;28;20037;-77
2021/09/28 11:56:24;;;;;;;5.00;0.95;;;27.00;80.00;;;;;;5047984;28;20763;-77
2021/09/28 11:58:52;;;;;;;5.25;0.80;;;27.40;79.70;;;;;;5024299;28;20041;-76
2021/09/28 12:01:20;;;;;;;6.35;0.95;;;27.40;76.60;;;;;;5026585;28;20034;-77
2021/09/28 12:07:07;;;;;;;6.35;0.90;;;27.70;75.20;;;;;;5021474;28;20042;-75
2021/09/28 12:09:39;;;;;;;6.32;0.80;;;27.70;72.40;;;;;;5026216;28;20040;-76
2021/09/28 12:12:08;;;;;;;4.60;0.80;;;27.50;73.30;;;;;;5028555;28;20049;-76
2021/09/28 12:14:43;;;;;;;7.65;4.55;;;27.30;72.90;;;;;;5026389;28;20048;-76
2021/09/28 12:17:15;;;;;;;5.45;2.00;;;27.30;72.60;;;;;;5023534;28;20033;-77
2021/09/28 12:19:47;;;;;;;6.80;1.35;;;27.70;71.40;;;;;;5011574;28;20041;-77
2021/09/28 12:22:27;;;;;;;9.27;1.13;;;27.70;68.70;;;;;;5034182;28;20041;-77
2021/09/28 12:24:54;;;;;;;2.63;0.70;;;27.20;70.10;;;;;;5030169;28;20033;-75
2021/09/28 12:27:22;;;;;;;4.72;1.00;;;26.80;71.20;;;;;;5008909;28;20400;-76
2021/09/28 12:29:50;;;;;;;5.28;0.90;;;26.50;72.40;;;;;;5020732;28;20045;-76
2021/09/28 12:32:22;;;;;;;10.13;2.42;;;26.90;71.90;;;;;;5032134;28;20037;-76
2021/09/28 12:34:51;;;;;;;6.35;2.00;;;27.80;71.10;;;;;;5027230;28;20034;-76
2021/09/28 12:37:18;;;;;;;6.50;1.30;;;28.80;68.60;;;;;;5029398;28;20028;-76
2021/09/28 12:40:19;;;;;;;5.95;0.90;;;29.50;65.00;;;;;;5033084;28;20037;-76
2021/09/28 12:42:46;;;;;;;4.15;1.10;;;30.00;62.80;;;;;;5010142;28;20053;-76
2021/09/28 12:45:16;;;;;;;4.43;0.88;;;30.10;61.50;;;;;;5034066;28;20053;-76
2021/09/28 12:47:45;;;;;;;6.90;0.90;;;30.20;60.50;;;;;;5027422;28;20033;-75
2021/09/28 12:50:19;;;;;;;5.70;1.00;;;30.50;59.70;;;;;;5032132;28;20044;-77
2021/09/28 12:52:47;;;;;;;6.63;1.48;;;30.70;57.30;;;;;;5018727;28;20057;-76
2021/09/28 12:55:13;;;;;;;3.40;0.70;;;30.80;57.10;;;;;;5032637;28;20045;-75